KPWK/PWK METAR and TAF weather

Enter ICAO airport designator
Station Type Date Time Source
KPWK METAR 2022/01/27 23:52 UTC NOAA

KPWK 272352Z 26005KT 10SM OVC037 01/M06 A3016 RMK AO2 SLP222 T00061061 10017 21011 51023


Station Type Date Time Source
KPWK Decoded METAR 2022/01/27 23:52 UTC NOAA

CHICAGO EXECUTIVE AIRPORT, IL, United States (KPWK) 42-07N 087-54W 203M
Jan 27, 2022 - 06:52 PM EST / 2022.01.27 2352 UTC
Wind: from the W (260 degrees) at 6 MPH (5 KT):0
Visibility: 10 mile(s):0
Sky conditions: overcast
Temperature: 33.1 F (0.6 C)
Windchill: 28 F (-2 C):1
Dew Point: 21.0 F (-6.1 C)
Relative Humidity: 60%
Pressure (altimeter): 30.16 in. Hg (1021 hPa)
Pressure tendency: 0.07 inches (2.3 hPa) higher than three hours ago
ob: KPWK 272352Z 26005KT 10SM OVC037 01/M06 A3016 RMK AO2 SLP222 T00061061 10017 21011 51023
cycle: 0

Station Type Date Time Source
KPWK TAF UTC NOAA

Error!

Example: see airport list